首页
METAR-TAF:

METAR-TAF

机场 :

索尔诺克, 匈牙利

纬度: 47-07N, 经度: 020-14E, 海拔: 89米

当前天气观测

该预报发布于25分钟前的11:15 UTC
风速4节,风向东转东南
温度 32°C
湿度 56%
气压 1013 hPa
能见度10公里或以上
1500米以下无云,无积雨云

METAR: LHSN 161115Z 11004KT CAVOK 32/22 Q1013 NOSIG RMK BLU

时间: 13:40 (11:40 UTC)

预报

该预报发布于25分钟前的11:15 UTC
预报有效从16日的 12点(UTC)到 16日的 21点(UTC)
风速5节,风向东转东南
能见度10公里或以上
1500米以下无云,无积雨云
成为
从 16日的 12点(UTC)到 16日的 14点(UTC)
能见度10公里或以上
散云层高于4000英尺, 塔状积云.
短暂存在
从 16日的 14点(UTC)到 16日的 21点(UTC)
风速17节,风向多变,有时为30节阵风
能見度: 6000
散云层高于3000英尺, 积雨云.
多云层高于4500英尺
阵雨, 雷暴, 雨

TAF: LHSN 161115Z 1612/1621 12005KT CAVOK BECMG 1612/1614 9999 SCT040TCU TEMPO 1614/1621 VRB17G30KT 6000 SHRA TSRA SCT030CB BKN045

超过4000个机场的气象观测和天气预报(METAR&TAF报告)。

可查询的气象台以黄色和红色小点在地图上表示。

将鼠标移到小点上方,可查看气象台名称。

然后点击查看天气观测和预报。

如需切换地图:点击带黑十字的绿色按钮放大地图;点击带横线的绿色按钮缩小地图;或者点击绿色箭头查看邻近地区的地图。


METAR-TAF: